Terminal Aerodrome Forecast
Issued by NWS

Home | Current Version | Previous Version | Text Only | Print | Product List | Glossary On
Versions: 1 2 3 4 5 6 7 8 9 10 11 12 13 14 15 16 17 18 19 20 21 22 23 24 25 26 27 28
000
FTUS43 KDVN 191500 AAA
TAFCID
TAF AMD
KCID 191519Z 1915/2012 14003KT P6SM BKN040
      TEMPO 1915/1918 5SM BR
     FM191800 15005KT P6SM OVC020
     FM200400 14004KT 6SM BR OVC015=

USA.gov is the U.S. government's official web portal to all federal, state and local government web resources and services.